sensor_id;sensor_type;location;lat;lon;timestamp;P1;durP1;ratioP1;P2;durP2;ratioP2
21697;SDS011;11010;49.548;11.926;2023-05-10T00:00:55;7.47;;;2.40;;
21697;SDS011;11010;49.548;11.926;2023-05-10T00:03:22;6.93;;;2.38;;
21697;SDS011;11010;49.548;11.926;2023-05-10T00:05:50;7.60;;;2.30;;
21697;SDS011;11010;49.548;11.926;2023-05-10T00:08:17;7.63;;;2.50;;
21697;SDS011;11010;49.548;11.926;2023-05-10T00:10:44;9.20;;;2.40;;
21697;SDS011;11010;49.548;11.926;2023-05-10T00:13:11;8.02;;;2.30;;
21697;SDS011;11010;49.548;11.926;2023-05-10T00:15:38;7.68;;;2.50;;
21697;SDS011;11010;49.548;11.926;2023-05-10T00:18:05;7.35;;;2.60;;
21697;SDS011;11010;49.548;11.926;2023-05-10T00:20:32;8.25;;;2.50;;
21697;SDS011;11010;49.548;11.926;2023-05-10T00:22:59;7.13;;;2.28;;
21697;SDS011;11010;49.548;11.926;2023-05-10T00:25:27;7.55;;;2.65;;
21697;SDS011;11010;49.548;11.926;2023-05-10T00:27:54;8.50;;;2.60;;
21697;SDS011;11010;49.548;11.926;2023-05-10T00:30:24;7.85;;;2.55;;
21697;SDS011;11010;49.548;11.926;2023-05-10T00:32:51;7.30;;;2.38;;
21697;SDS011;11010;49.548;11.926;2023-05-10T00:35:18;7.65;;;2.53;;
21697;SDS011;11010;49.548;11.926;2023-05-10T00:37:46;7.47;;;2.38;;
21697;SDS011;11010;49.548;11.926;2023-05-10T00:40:14;8.55;;;2.50;;
21697;SDS011;11010;49.548;11.926;2023-05-10T00:42:45;7.95;;;2.70;;
21697;SDS011;11010;49.548;11.926;2023-05-10T00:45:13;7.50;;;2.60;;
21697;SDS011;11010;49.548;11.926;2023-05-10T00:47:40;8.48;;;2.45;;
21697;SDS011;11010;49.548;11.926;2023-05-10T00:50:07;6.75;;;2.28;;
21697;SDS011;11010;49.548;11.926;2023-05-10T00:52:35;7.82;;;2.53;;
21697;SDS011;11010;49.548;11.926;2023-05-10T00:55:02;7.75;;;2.97;;
21697;SDS011;11010;49.548;11.926;2023-05-10T00:57:31;7.00;;;2.13;;
21697;SDS011;11010;49.548;11.926;2023-05-10T00:59:58;7.85;;;2.42;;
21697;SDS011;11010;49.548;11.926;2023-05-10T01:02:26;8.23;;;2.60;;
21697;SDS011;11010;49.548;11.926;2023-05-10T01:04:55;7.32;;;2.17;;
21697;SDS011;11010;49.548;11.926;2023-05-10T01:07:22;6.93;;;2.60;;
21697;SDS011;11010;49.548;11.926;2023-05-10T01:09:50;8.23;;;2.40;;
21697;SDS011;11010;49.548;11.926;2023-05-10T01:12:17;7.85;;;2.20;;
21697;SDS011;11010;49.548;11.926;2023-05-10T01:14:44;7.95;;;2.30;;
21697;SDS011;11010;49.548;11.926;2023-05-10T01:17:11;8.82;;;2.60;;
21697;SDS011;11010;49.548;11.926;2023-05-10T01:19:40;7.15;;;2.35;;
21697;SDS011;11010;49.548;11.926;2023-05-10T01:27:54;6.90;;;2.40;;
21697;SDS011;11010;49.548;11.926;2023-05-10T01:30:28;8.40;;;2.50;;
21697;SDS011;11010;49.548;11.926;2023-05-10T01:36:27;8.55;;;2.60;;
21697;SDS011;11010;49.548;11.926;2023-05-10T01:41:54;8.00;;;2.58;;
21697;SDS011;11010;49.548;11.926;2023-05-10T01:47:22;7.13;;;2.22;;
21697;SDS011;11010;49.548;11.926;2023-05-10T01:50:02;7.40;;;2.63;;
21697;SDS011;11010;49.548;11.926;2023-05-10T01:52:33;7.05;;;2.47;;
21697;SDS011;11010;49.548;11.926;2023-05-10T01:55:06;8.13;;;2.55;;
21697;SDS011;11010;49.548;11.926;2023-05-10T01:57:36;7.97;;;2.72;;
21697;SDS011;11010;49.548;11.926;2023-05-10T02:00:07;9.20;;;2.95;;
21697;SDS011;11010;49.548;11.926;2023-05-10T02:02:45;7.15;;;2.40;;
21697;SDS011;11010;49.548;11.926;2023-05-10T02:05:14;8.40;;;2.55;;
21697;SDS011;11010;49.548;11.926;2023-05-10T02:07:42;7.05;;;2.25;;
21697;SDS011;11010;49.548;11.926;2023-05-10T02:10:11;7.50;;;2.38;;
21697;SDS011;11010;49.548;11.926;2023-05-10T02:12:43;8.05;;;2.90;;
21697;SDS011;11010;49.548;11.926;2023-05-10T02:15:15;8.93;;;2.65;;
21697;SDS011;11010;49.548;11.926;2023-05-10T02:17:47;7.30;;;2.28;;
21697;SDS011;11010;49.548;11.926;2023-05-10T02:20:15;7.75;;;2.45;;
21697;SDS011;11010;49.548;11.926;2023-05-10T02:22:45;8.07;;;2.22;;
21697;SDS011;11010;49.548;11.926;2023-05-10T02:25:15;7.55;;;2.72;;
21697;SDS011;11010;49.548;11.926;2023-05-10T02:27:44;7.90;;;2.63;;
21697;SDS011;11010;49.548;11.926;2023-05-10T02:30:12;7.72;;;2.50;;
21697;SDS011;11010;49.548;11.926;2023-05-10T02:32:40;8.18;;;2.67;;
21697;SDS011;11010;49.548;11.926;2023-05-10T02:35:08;7.43;;;2.35;;
21697;SDS011;11010;49.548;11.926;2023-05-10T02:37:37;8.23;;;2.60;;
21697;SDS011;11010;49.548;11.926;2023-05-10T02:40:06;7.30;;;2.35;;
21697;SDS011;11010;49.548;11.926;2023-05-10T02:42:35;7.28;;;2.53;;
21697;SDS011;11010;49.548;11.926;2023-05-10T02:45:07;7.30;;;2.20;;
21697;SDS011;11010;49.548;11.926;2023-05-10T02:47:38;8.23;;;2.40;;
21697;SDS011;11010;49.548;11.926;2023-05-10T02:50:05;7.25;;;2.50;;
21697;SDS011;11010;49.548;11.926;2023-05-10T02:52:38;7.25;;;2.42;;
21697;SDS011;11010;49.548;11.926;2023-05-10T02:55:11;7.25;;;2.47;;
21697;SDS011;11010;49.548;11.926;2023-05-10T02:57:54;7.53;;;2.75;;
21697;SDS011;11010;49.548;11.926;2023-05-10T03:00:25;8.52;;;2.58;;
21697;SDS011;11010;49.548;11.926;2023-05-10T03:02:52;7.22;;;2.35;;
21697;SDS011;11010;49.548;11.926;2023-05-10T03:05:20;7.57;;;2.50;;
21697;SDS011;11010;49.548;11.926;2023-05-10T03:07:47;7.78;;;2.40;;
21697;SDS011;11010;49.548;11.926;2023-05-10T03:10:15;7.03;;;2.40;;
21697;SDS011;11010;49.548;11.926;2023-05-10T03:18:23;6.80;;;2.30;;
21697;SDS011;11010;49.548;11.926;2023-05-10T03:21:04;8.07;;;2.60;;
21697;SDS011;11010;49.548;11.926;2023-05-10T03:23:38;7.07;;;2.33;;
21697;SDS011;11010;49.548;11.926;2023-05-10T03:26:31;8.57;;;2.60;;
21697;SDS011;11010;49.548;11.926;2023-05-10T03:29:06;7.82;;;2.55;;
21697;SDS011;11010;49.548;11.926;2023-05-10T03:31:35;7.25;;;2.22;;
21697;SDS011;11010;49.548;11.926;2023-05-10T03:34:02;10.27;;;2.75;;
21697;SDS011;11010;49.548;11.926;2023-05-10T03:36:30;7.28;;;2.30;;
21697;SDS011;11010;49.548;11.926;2023-05-10T03:38:58;8.07;;;2.50;;
21697;SDS011;11010;49.548;11.926;2023-05-10T03:41:26;7.43;;;2.25;;
21697;SDS011;11010;49.548;11.926;2023-05-10T03:43:53;6.90;;;2.40;;
21697;SDS011;11010;49.548;11.926;2023-05-10T03:46:21;7.18;;;2.55;;
21697;SDS011;11010;49.548;11.926;2023-05-10T03:48:48;7.78;;;2.35;;
21697;SDS011;11010;49.548;11.926;2023-05-10T03:51:17;7.50;;;2.70;;
21697;SDS011;11010;49.548;11.926;2023-05-10T03:53:44;7.55;;;2.42;;
21697;SDS011;11010;49.548;11.926;2023-05-10T03:56:11;7.25;;;2.40;;
21697;SDS011;11010;49.548;11.926;2023-05-10T03:58:38;7.40;;;2.53;;
21697;SDS011;11010;49.548;11.926;2023-05-10T04:01:05;7.75;;;2.58;;
21697;SDS011;11010;49.548;11.926;2023-05-10T04:03:32;8.95;;;2.60;;
21697;SDS011;11010;49.548;11.926;2023-05-10T04:06:02;7.63;;;2.58;;
21697;SDS011;11010;49.548;11.926;2023-05-10T04:08:29;8.15;;;2.70;;
21697;SDS011;11010;49.548;11.926;2023-05-10T04:11:06;6.80;;;2.30;;
21697;SDS011;11010;49.548;11.926;2023-05-10T04:13:34;6.95;;;2.50;;
21697;SDS011;11010;49.548;11.926;2023-05-10T04:16:02;8.88;;;2.75;;
21697;SDS011;11010;49.548;11.926;2023-05-10T04:18:29;8.45;;;2.50;;
21697;SDS011;11010;49.548;11.926;2023-05-10T04:20:57;7.32;;;2.60;;
21697;SDS011;11010;49.548;11.926;2023-05-10T04:23:24;7.82;;;2.67;;
21697;SDS011;11010;49.548;11.926;2023-05-10T04:25:51;8.25;;;2.65;;
21697;SDS011;11010;49.548;11.926;2023-05-10T04:28:18;7.57;;;2.38;;
21697;SDS011;11010;49.548;11.926;2023-05-10T04:30:45;7.18;;;2.60;;
21697;SDS011;11010;49.548;11.926;2023-05-10T04:33:12;9.43;;;3.00;;
21697;SDS011;11010;49.548;11.926;2023-05-10T04:35:40;7.95;;;2.70;;
21697;SDS011;11010;49.548;11.926;2023-05-10T04:38:07;8.25;;;2.85;;
21697;SDS011;11010;49.548;11.926;2023-05-10T04:40:34;9.00;;;3.00;;
21697;SDS011;11010;49.548;11.926;2023-05-10T04:43:02;7.13;;;2.72;;
21697;SDS011;11010;49.548;11.926;2023-05-10T04:45:29;8.65;;;3.05;;
21697;SDS011;11010;49.548;11.926;2023-05-10T04:47:56;7.88;;;2.80;;
21697;SDS011;11010;49.548;11.926;2023-05-10T04:50:23;8.57;;;3.00;;
21697;SDS011;11010;49.548;11.926;2023-05-10T04:52:50;7.22;;;2.42;;
21697;SDS011;11010;49.548;11.926;2023-05-10T04:55:18;8.68;;;2.80;;
21697;SDS011;11010;49.548;11.926;2023-05-10T04:57:45;8.50;;;3.13;;
21697;SDS011;11010;49.548;11.926;2023-05-10T05:00:13;8.68;;;2.80;;
21697;SDS011;11010;49.548;11.926;2023-05-10T05:02:43;7.88;;;2.70;;
21697;SDS011;11010;49.548;11.926;2023-05-10T05:05:14;7.70;;;3.00;;
21697;SDS011;11010;49.548;11.926;2023-05-10T05:07:41;7.65;;;2.83;;
21697;SDS011;11010;49.548;11.926;2023-05-10T05:10:08;9.32;;;3.10;;
21697;SDS011;11010;49.548;11.926;2023-05-10T05:12:35;8.55;;;2.92;;
21697;SDS011;11010;49.548;11.926;2023-05-10T05:15:03;7.90;;;2.78;;
21697;SDS011;11010;49.548;11.926;2023-05-10T05:17:32;9.00;;;2.67;;
21697;SDS011;11010;49.548;11.926;2023-05-10T05:19:59;8.13;;;2.97;;
21697;SDS011;11010;49.548;11.926;2023-05-10T05:22:26;7.50;;;2.85;;
21697;SDS011;11010;49.548;11.926;2023-05-10T05:24:54;7.97;;;2.85;;
21697;SDS011;11010;49.548;11.926;2023-05-10T05:27:22;8.30;;;2.70;;
21697;SDS011;11010;49.548;11.926;2023-05-10T05:29:51;8.57;;;3.10;;
21697;SDS011;11010;49.548;11.926;2023-05-10T05:32:22;9.50;;;3.20;;
21697;SDS011;11010;49.548;11.926;2023-05-10T05:34:51;7.38;;;2.88;;
21697;SDS011;11010;49.548;11.926;2023-05-10T05:37:18;8.48;;;2.88;;
21697;SDS011;11010;49.548;11.926;2023-05-10T05:39:47;9.63;;;2.97;;
21697;SDS011;11010;49.548;11.926;2023-05-10T05:42:15;9.32;;;2.90;;
21697;SDS011;11010;49.548;11.926;2023-05-10T05:44:44;9.20;;;3.13;;
21697;SDS011;11010;49.548;11.926;2023-05-10T05:47:11;8.77;;;3.10;;
21697;SDS011;11010;49.548;11.926;2023-05-10T05:49:38;7.93;;;3.03;;
21697;SDS011;11010;49.548;11.926;2023-05-10T05:52:06;7.90;;;3.30;;
21697;SDS011;11010;49.548;11.926;2023-05-10T05:54:33;10.07;;;3.50;;
21697;SDS011;11010;49.548;11.926;2023-05-10T05:57:00;8.25;;;3.15;;
21697;SDS011;11010;49.548;11.926;2023-05-10T05:59:27;8.77;;;3.22;;
21697;SDS011;11010;49.548;11.926;2023-05-10T06:01:54;9.23;;;3.33;;
21697;SDS011;11010;49.548;11.926;2023-05-10T06:04:21;11.25;;;3.72;;
21697;SDS011;11010;49.548;11.926;2023-05-10T06:06:48;8.82;;;3.28;;
21697;SDS011;11010;49.548;11.926;2023-05-10T06:09:16;8.77;;;3.50;;
21697;SDS011;11010;49.548;11.926;2023-05-10T06:11:43;9.82;;;3.38;;
21697;SDS011;11010;49.548;11.926;2023-05-10T06:14:10;7.93;;;2.90;;
21697;SDS011;11010;49.548;11.926;2023-05-10T06:16:37;8.75;;;3.40;;
21697;SDS011;11010;49.548;11.926;2023-05-10T06:19:04;8.18;;;3.22;;
21697;SDS011;11010;49.548;11.926;2023-05-10T06:21:31;8.55;;;3.47;;
21697;SDS011;11010;49.548;11.926;2023-05-10T06:23:58;11.10;;;4.35;;
21697;SDS011;11010;49.548;11.926;2023-05-10T06:26:25;9.25;;;3.60;;
21697;SDS011;11010;49.548;11.926;2023-05-10T06:28:52;10.35;;;3.47;;
21697;SDS011;11010;49.548;11.926;2023-05-10T06:31:19;9.15;;;3.40;;
21697;SDS011;11010;49.548;11.926;2023-05-10T06:33:47;9.90;;;3.58;;
21697;SDS011;11010;49.548;11.926;2023-05-10T06:36:14;9.27;;;3.60;;
21697;SDS011;11010;49.548;11.926;2023-05-10T06:38:41;11.05;;;3.95;;
21697;SDS011;11010;49.548;11.926;2023-05-10T06:41:08;8.65;;;3.58;;
21697;SDS011;11010;49.548;11.926;2023-05-10T06:43:35;9.00;;;4.10;;
21697;SDS011;11010;49.548;11.926;2023-05-10T06:46:06;8.35;;;3.42;;
21697;SDS011;11010;49.548;11.926;2023-05-10T06:48:33;10.18;;;3.60;;
21697;SDS011;11010;49.548;11.926;2023-05-10T06:51:01;10.02;;;4.22;;
21697;SDS011;11010;49.548;11.926;2023-05-10T06:53:28;10.00;;;3.97;;
21697;SDS011;11010;49.548;11.926;2023-05-10T06:55:55;13.55;;;4.22;;
21697;SDS011;11010;49.548;11.926;2023-05-10T06:58:22;9.15;;;3.97;;
21697;SDS011;11010;49.548;11.926;2023-05-10T07:00:49;9.88;;;3.88;;
21697;SDS011;11010;49.548;11.926;2023-05-10T07:03:16;8.45;;;3.60;;
21697;SDS011;11010;49.548;11.926;2023-05-10T07:05:44;9.13;;;3.45;;
21697;SDS011;11010;49.548;11.926;2023-05-10T07:08:11;10.07;;;3.97;;
21697;SDS011;11010;49.548;11.926;2023-05-10T07:10:38;9.05;;;3.55;;
21697;SDS011;11010;49.548;11.926;2023-05-10T07:13:05;10.18;;;4.00;;
21697;SDS011;11010;49.548;11.926;2023-05-10T07:15:32;11.93;;;4.32;;
21697;SDS011;11010;49.548;11.926;2023-05-10T07:17:59;9.60;;;3.80;;
21697;SDS011;11010;49.548;11.926;2023-05-10T07:20:27;10.60;;;4.63;;
21697;SDS011;11010;49.548;11.926;2023-05-10T07:22:54;9.88;;;3.72;;
21697;SDS011;11010;49.548;11.926;2023-05-10T07:25:21;9.50;;;4.00;;
21697;SDS011;11010;49.548;11.926;2023-05-10T07:27:48;9.52;;;4.03;;
21697;SDS011;11010;49.548;11.926;2023-05-10T07:30:15;9.23;;;3.50;;
21697;SDS011;11010;49.548;11.926;2023-05-10T07:32:43;10.77;;;4.30;;
21697;SDS011;11010;49.548;11.926;2023-05-10T07:35:11;9.07;;;4.18;;
21697;SDS011;11010;49.548;11.926;2023-05-10T07:37:38;10.68;;;4.25;;
21697;SDS011;11010;49.548;11.926;2023-05-10T07:40:05;10.73;;;4.07;;
21697;SDS011;11010;49.548;11.926;2023-05-10T07:42:33;10.27;;;4.20;;
21697;SDS011;11010;49.548;11.926;2023-05-10T07:45:00;12.52;;;4.10;;
21697;SDS011;11010;49.548;11.926;2023-05-10T07:47:27;10.15;;;4.05;;
21697;SDS011;11010;49.548;11.926;2023-05-10T07:49:54;10.80;;;4.25;;
21697;SDS011;11010;49.548;11.926;2023-05-10T07:52:21;11.18;;;4.38;;
21697;SDS011;11010;49.548;11.926;2023-05-10T07:54:48;9.82;;;3.88;;
21697;SDS011;11010;49.548;11.926;2023-05-10T07:57:15;9.90;;;3.78;;
21697;SDS011;11010;49.548;11.926;2023-05-10T07:59:44;9.93;;;3.90;;
21697;SDS011;11010;49.548;11.926;2023-05-10T08:02:11;10.30;;;3.83;;
21697;SDS011;11010;49.548;11.926;2023-05-10T08:04:38;11.30;;;4.00;;
21697;SDS011;11010;49.548;11.926;2023-05-10T08:07:06;10.75;;;3.80;;
21697;SDS011;11010;49.548;11.926;2023-05-10T08:09:33;9.60;;;3.95;;
21697;SDS011;11010;49.548;11.926;2023-05-10T08:12:00;10.20;;;4.00;;
21697;SDS011;11010;49.548;11.926;2023-05-10T08:14:28;9.10;;;3.63;;
21697;SDS011;11010;49.548;11.926;2023-05-10T08:16:56;8.98;;;4.28;;
21697;SDS011;11010;49.548;11.926;2023-05-10T08:19:23;9.35;;;3.92;;
21697;SDS011;11010;49.548;11.926;2023-05-10T08:21:50;8.70;;;3.70;;
21697;SDS011;11010;49.548;11.926;2023-05-10T08:24:17;9.95;;;3.50;;
21697;SDS011;11010;49.548;11.926;2023-05-10T08:26:44;8.95;;;3.78;;
21697;SDS011;11010;49.548;11.926;2023-05-10T08:29:11;10.23;;;3.58;;
21697;SDS011;11010;49.548;11.926;2023-05-10T08:31:38;9.00;;;3.25;;
21697;SDS011;11010;49.548;11.926;2023-05-10T08:34:05;8.30;;;2.92;;
21697;SDS011;11010;49.548;11.926;2023-05-10T08:36:33;7.60;;;2.70;;
21697;SDS011;11010;49.548;11.926;2023-05-10T08:39:00;7.65;;;2.40;;
21697;SDS011;11010;49.548;11.926;2023-05-10T08:41:27;7.70;;;2.58;;
21697;SDS011;11010;49.548;11.926;2023-05-10T08:43:56;6.97;;;2.60;;
21697;SDS011;11010;49.548;11.926;2023-05-10T08:46:23;8.07;;;2.60;;
21697;SDS011;11010;49.548;11.926;2023-05-10T08:48:53;7.75;;;2.35;;
21697;SDS011;11010;49.548;11.926;2023-05-10T08:51:24;6.68;;;2.33;;
21697;SDS011;11010;49.548;11.926;2023-05-10T08:53:53;8.27;;;2.50;;
21697;SDS011;11010;49.548;11.926;2023-05-10T08:56:20;7.20;;;2.40;;
21697;SDS011;11010;49.548;11.926;2023-05-10T08:58:47;8.20;;;2.20;;
21697;SDS011;11010;49.548;11.926;2023-05-10T09:01:16;7.43;;;2.13;;
21697;SDS011;11010;49.548;11.926;2023-05-10T09:03:46;6.53;;;1.80;;
21697;SDS011;11010;49.548;11.926;2023-05-10T09:06:14;6.47;;;1.88;;
21697;SDS011;11010;49.548;11.926;2023-05-10T09:08:42;5.88;;;1.67;;
21697;SDS011;11010;49.548;11.926;2023-05-10T09:11:09;6.68;;;1.70;;
21697;SDS011;11010;49.548;11.926;2023-05-10T09:13:38;6.15;;;1.67;;
21697;SDS011;11010;49.548;11.926;2023-05-10T09:16:05;6.50;;;1.88;;
21697;SDS011;11010;49.548;11.926;2023-05-10T09:18:46;8.85;;;1.83;;
21697;SDS011;11010;49.548;11.926;2023-05-10T09:21:13;6.82;;;2.17;;
21697;SDS011;11010;49.548;11.926;2023-05-10T09:23:44;6.70;;;1.70;;
21697;SDS011;11010;49.548;11.926;2023-05-10T09:26:14;6.13;;;1.73;;
21697;SDS011;11010;49.548;11.926;2023-05-10T09:28:54;6.30;;;1.75;;
21697;SDS011;11010;49.548;11.926;2023-05-10T09:31:23;5.97;;;1.58;;
21697;SDS011;11010;49.548;11.926;2023-05-10T09:33:52;6.85;;;1.70;;
21697;SDS011;11010;49.548;11.926;2023-05-10T09:36:19;5.60;;;1.58;;
21697;SDS011;11010;49.548;11.926;2023-05-10T09:38:47;5.45;;;1.50;;
21697;SDS011;11010;49.548;11.926;2023-05-10T09:41:22;5.15;;;1.40;;
21697;SDS011;11010;49.548;11.926;2023-05-10T09:43:50;5.13;;;1.40;;
21697;SDS011;11010;49.548;11.926;2023-05-10T09:46:22;4.63;;;1.33;;
21697;SDS011;11010;49.548;11.926;2023-05-10T09:48:49;5.40;;;1.30;;
21697;SDS011;11010;49.548;11.926;2023-05-10T09:54:08;4.38;;;1.20;;
21697;SDS011;11010;49.548;11.926;2023-05-10T09:56:37;5.07;;;1.38;;
21697;SDS011;11010;49.548;11.926;2023-05-10T09:59:10;5.13;;;1.70;;
21697;SDS011;11010;49.548;11.926;2023-05-10T10:01:38;4.53;;;1.15;;
21697;SDS011;11010;49.548;11.926;2023-05-10T10:04:10;4.45;;;1.15;;
21697;SDS011;11010;49.548;11.926;2023-05-10T10:06:38;4.32;;;1.10;;
21697;SDS011;11010;49.548;11.926;2023-05-10T10:09:06;4.68;;;1.00;;
21697;SDS011;11010;49.548;11.926;2023-05-10T10:11:34;3.65;;;0.98;;
21697;SDS011;11010;49.548;11.926;2023-05-10T10:14:03;4.30;;;1.10;;
21697;SDS011;11010;49.548;11.926;2023-05-10T10:16:31;3.47;;;0.93;;
21697;SDS011;11010;49.548;11.926;2023-05-10T10:18:59;2.55;;;0.90;;
21697;SDS011;11010;49.548;11.926;2023-05-10T10:21:27;3.42;;;1.00;;
21697;SDS011;11010;49.548;11.926;2023-05-10T10:23:54;3.97;;;1.00;;
21697;SDS011;11010;49.548;11.926;2023-05-10T10:26:21;2.78;;;0.90;;
21697;SDS011;11010;49.548;11.926;2023-05-10T10:32:18;3.15;;;1.00;;
21697;SDS011;11010;49.548;11.926;2023-05-10T10:34:59;4.32;;;1.05;;
21697;SDS011;11010;49.548;11.926;2023-05-10T10:37:43;2.33;;;0.90;;
21697;SDS011;11010;49.548;11.926;2023-05-10T10:40:31;3.80;;;1.00;;
21697;SDS011;11010;49.548;11.926;2023-05-10T10:48:40;3.20;;;0.98;;
21697;SDS011;11010;49.548;11.926;2023-05-10T10:51:08;3.25;;;0.98;;
21697;SDS011;11010;49.548;11.926;2023-05-10T10:53:38;2.38;;;0.90;;
21697;SDS011;11010;49.548;11.926;2023-05-10T10:56:06;3.33;;;1.00;;
21697;SDS011;11010;49.548;11.926;2023-05-10T10:58:36;3.45;;;1.00;;
21697;SDS011;11010;49.548;11.926;2023-05-10T11:06:42;5.03;;;1.10;;
21697;SDS011;11010;49.548;11.926;2023-05-10T11:09:10;1.65;;;0.80;;
21697;SDS011;11010;49.548;11.926;2023-05-10T11:11:53;2.72;;;0.90;;
21697;SDS011;11010;49.548;11.926;2023-05-10T11:14:21;3.38;;;0.90;;
21697;SDS011;11010;49.548;11.926;2023-05-10T11:16:49;2.45;;;0.80;;
21697;SDS011;11010;49.548;11.926;2023-05-10T11:19:17;2.80;;;0.82;;
21697;SDS011;11010;49.548;11.926;2023-05-10T11:24:31;2.75;;;0.90;;
21697;SDS011;11010;49.548;11.926;2023-05-10T11:26:59;2.90;;;0.90;;
21697;SDS011;11010;49.548;11.926;2023-05-10T11:29:27;2.63;;;0.82;;
21697;SDS011;11010;49.548;11.926;2023-05-10T11:31:56;4.25;;;1.13;;
21697;SDS011;11010;49.548;11.926;2023-05-10T11:34:25;2.35;;;0.80;;
21697;SDS011;11010;49.548;11.926;2023-05-10T11:36:54;3.00;;;0.93;;
21697;SDS011;11010;49.548;11.926;2023-05-10T11:39:26;4.32;;;0.90;;
21697;SDS011;11010;49.548;11.926;2023-05-10T11:41:54;4.65;;;0.90;;
21697;SDS011;11010;49.548;11.926;2023-05-10T11:44:21;3.25;;;0.80;;
21697;SDS011;11010;49.548;11.926;2023-05-10T11:46:49;4.38;;;0.90;;
21697;SDS011;11010;49.548;11.926;2023-05-10T11:49:16;8.98;;;3.63;;
21697;SDS011;11010;49.548;11.926;2023-05-10T11:51:43;8.02;;;2.25;;
21697;SDS011;11010;49.548;11.926;2023-05-10T11:54:11;7.45;;;2.20;;
21697;SDS011;11010;49.548;11.926;2023-05-10T11:56:39;7.30;;;1.67;;
21697;SDS011;11010;49.548;11.926;2023-05-10T11:59:07;6.57;;;1.42;;
21697;SDS011;11010;49.548;11.926;2023-05-10T12:01:34;2.88;;;0.80;;
21697;SDS011;11010;49.548;11.926;2023-05-10T12:04:02;2.13;;;0.70;;
21697;SDS011;11010;49.548;11.926;2023-05-10T12:06:30;1.52;;;0.63;;
21697;SDS011;11010;49.548;11.926;2023-05-10T12:08:59;1.73;;;0.70;;
21697;SDS011;11010;49.548;11.926;2023-05-10T12:11:31;2.15;;;0.70;;
21697;SDS011;11010;49.548;11.926;2023-05-10T12:13:59;2.90;;;0.80;;
21697;SDS011;11010;49.548;11.926;2023-05-10T12:16:28;1.30;;;0.70;;
21697;SDS011;11010;49.548;11.926;2023-05-10T12:18:56;3.55;;;0.80;;
21697;SDS011;11010;49.548;11.926;2023-05-10T12:21:25;1.60;;;0.70;;
21697;SDS011;11010;49.548;11.926;2023-05-10T12:23:56;1.98;;;0.80;;
21697;SDS011;11010;49.548;11.926;2023-05-10T12:26:27;2.22;;;0.75;;
21697;SDS011;11010;49.548;11.926;2023-05-10T12:29:11;1.45;;;0.70;;
21697;SDS011;11010;49.548;11.926;2023-05-10T12:31:55;1.05;;;0.63;;
21697;SDS011;11010;49.548;11.926;2023-05-10T12:34:30;1.45;;;0.70;;
21697;SDS011;11010;49.548;11.926;2023-05-10T12:36:58;2.70;;;0.90;;
21697;SDS011;11010;49.548;11.926;2023-05-10T12:39:26;4.15;;;1.10;;
21697;SDS011;11010;49.548;11.926;2023-05-10T12:42:04;2.85;;;0.85;;
21697;SDS011;11010;49.548;11.926;2023-05-10T12:44:31;2.60;;;0.80;;
21697;SDS011;11010;49.548;11.926;2023-05-10T12:46:58;1.00;;;0.70;;
21697;SDS011;11010;49.548;11.926;2023-05-10T12:49:25;2.03;;;0.80;;
21697;SDS011;11010;49.548;11.926;2023-05-10T12:51:53;1.95;;;0.60;;
21697;SDS011;11010;49.548;11.926;2023-05-10T12:54:20;0.73;;;0.60;;
21697;SDS011;11010;49.548;11.926;2023-05-10T12:56:47;2.00;;;0.75;;
21697;SDS011;11010;49.548;11.926;2023-05-10T12:59:14;3.17;;;0.75;;
21697;SDS011;11010;49.548;11.926;2023-05-10T13:01:41;4.68;;;0.80;;
21697;SDS011;11010;49.548;11.926;2023-05-10T13:04:08;4.20;;;0.80;;
21697;SDS011;11010;49.548;11.926;2023-05-10T13:06:36;2.83;;;0.90;;
21697;SDS011;11010;49.548;11.926;2023-05-10T13:09:03;2.35;;;0.80;;
21697;SDS011;11010;49.548;11.926;2023-05-10T13:11:30;2.30;;;0.90;;
21697;SDS011;11010;49.548;11.926;2023-05-10T13:13:57;4.70;;;1.10;;
21697;SDS011;11010;49.548;11.926;2023-05-10T13:16:25;13.90;;;2.00;;
21697;SDS011;11010;49.548;11.926;2023-05-10T13:18:52;9.30;;;1.60;;
21697;SDS011;11010;49.548;11.926;2023-05-10T13:21:19;8.00;;;1.50;;
21697;SDS011;11010;49.548;11.926;2023-05-10T13:23:46;3.58;;;1.10;;
21697;SDS011;11010;49.548;11.926;2023-05-10T13:26:13;5.50;;;1.20;;
21697;SDS011;11010;49.548;11.926;2023-05-10T13:28:40;3.72;;;0.88;;
21697;SDS011;11010;49.548;11.926;2023-05-10T13:31:08;2.28;;;0.82;;
21697;SDS011;11010;49.548;11.926;2023-05-10T13:33:35;3.55;;;1.05;;
21697;SDS011;11010;49.548;11.926;2023-05-10T13:36:02;3.83;;;0.93;;
21697;SDS011;11010;49.548;11.926;2023-05-10T13:38:29;4.95;;;1.00;;
21697;SDS011;11010;49.548;11.926;2023-05-10T13:40:56;3.63;;;1.00;;
21697;SDS011;11010;49.548;11.926;2023-05-10T13:43:23;3.55;;;0.90;;
21697;SDS011;11010;49.548;11.926;2023-05-10T13:45:50;4.22;;;1.10;;
21697;SDS011;11010;49.548;11.926;2023-05-10T13:48:18;4.18;;;1.10;;
21697;SDS011;11010;49.548;11.926;2023-05-10T13:50:45;4.22;;;1.10;;
21697;SDS011;11010;49.548;11.926;2023-05-10T13:53:12;3.50;;;1.00;;
21697;SDS011;11010;49.548;11.926;2023-05-10T13:55:40;2.95;;;0.82;;
21697;SDS011;11010;49.548;11.926;2023-05-10T13:58:07;3.80;;;1.02;;
21697;SDS011;11010;49.548;11.926;2023-05-10T14:00:35;4.30;;;1.17;;
21697;SDS011;11010;49.548;11.926;2023-05-10T14:03:02;4.32;;;0.98;;
21697;SDS011;11010;49.548;11.926;2023-05-10T14:05:31;3.33;;;1.00;;
21697;SDS011;11010;49.548;11.926;2023-05-10T14:07:58;4.40;;;1.20;;
21697;SDS011;11010;49.548;11.926;2023-05-10T14:10:25;3.55;;;1.10;;
21697;SDS011;11010;49.548;11.926;2023-05-10T14:12:52;6.75;;;1.30;;
21697;SDS011;11010;49.548;11.926;2023-05-10T14:15:19;4.47;;;1.00;;
21697;SDS011;11010;49.548;11.926;2023-05-10T14:17:46;3.58;;;1.10;;
21697;SDS011;11010;49.548;11.926;2023-05-10T14:20:14;3.60;;;1.05;;
21697;SDS011;11010;49.548;11.926;2023-05-10T14:22:41;6.70;;;1.30;;
21697;SDS011;11010;49.548;11.926;2023-05-10T14:25:08;3.03;;;1.10;;
21697;SDS011;11010;49.548;11.926;2023-05-10T14:27:35;5.85;;;1.42;;
21697;SDS011;11010;49.548;11.926;2023-05-10T14:30:03;5.32;;;1.50;;
21697;SDS011;11010;49.548;11.926;2023-05-10T14:32:30;7.53;;;1.83;;
21697;SDS011;11010;49.548;11.926;2023-05-10T14:34:58;8.20;;;2.58;;
21697;SDS011;11010;49.548;11.926;2023-05-10T14:37:26;6.32;;;1.85;;
21697;SDS011;11010;49.548;11.926;2023-05-10T14:39:53;5.75;;;1.70;;
21697;SDS011;11010;49.548;11.926;2023-05-10T14:42:20;5.00;;;1.70;;
21697;SDS011;11010;49.548;11.926;2023-05-10T14:44:47;9.63;;;1.90;;
21697;SDS011;11010;49.548;11.926;2023-05-10T14:47:14;6.60;;;2.25;;
21697;SDS011;11010;49.548;11.926;2023-05-10T14:49:42;8.50;;;2.90;;
21697;SDS011;11010;49.548;11.926;2023-05-10T14:52:09;11.30;;;5.30;;
21697;SDS011;11010;49.548;11.926;2023-05-10T14:54:36;13.30;;;6.80;;
21697;SDS011;11010;49.548;11.926;2023-05-10T14:57:03;13.13;;;5.20;;
21697;SDS011;11010;49.548;11.926;2023-05-10T14:59:30;7.90;;;2.35;;
21697;SDS011;11010;49.548;11.926;2023-05-10T15:01:58;8.55;;;2.70;;
21697;SDS011;11010;49.548;11.926;2023-05-10T15:04:26;14.13;;;5.50;;
21697;SDS011;11010;49.548;11.926;2023-05-10T15:06:54;41.00;;;19.25;;
21697;SDS011;11010;49.548;11.926;2023-05-10T15:09:25;18.20;;;7.90;;
21697;SDS011;11010;49.548;11.926;2023-05-10T15:11:55;17.33;;;7.45;;
21697;SDS011;11010;49.548;11.926;2023-05-10T15:14:22;18.90;;;8.88;;
21697;SDS011;11010;49.548;11.926;2023-05-10T15:16:49;16.33;;;7.30;;
21697;SDS011;11010;49.548;11.926;2023-05-10T15:19:16;9.90;;;3.30;;
21697;SDS011;11010;49.548;11.926;2023-05-10T15:21:43;8.48;;;2.35;;